sensor_id;sensor_type;location;lat;lon;timestamp;pressure;altitude;pressure_sealevel;temperature;humidity
5609;BME280;2826;51.354;9.588;2023-04-08T00:01:17;98576.25;;;7.52;52.13
5609;BME280;2826;51.354;9.588;2023-04-08T00:03:49;98570.28;;;7.52;51.98
5609;BME280;2826;51.354;9.588;2023-04-08T00:06:25;98580.59;;;7.52;52.10
5609;BME280;2826;51.354;9.588;2023-04-08T00:08:53;98576.25;;;7.52;52.23
5609;BME280;2826;51.354;9.588;2023-04-08T00:11:20;98576.25;;;7.52;52.10
5609;BME280;2826;51.354;9.588;2023-04-08T00:13:47;98569.34;;;7.54;52.25
5609;BME280;2826;51.354;9.588;2023-04-08T00:16:14;98570.13;;;7.58;51.97
5609;BME280;2826;51.354;9.588;2023-04-08T00:18:41;98571.84;;;7.57;52.25
5609;BME280;2826;51.354;9.588;2023-04-08T00:21:08;98574.44;;;7.57;52.24
5609;BME280;2826;51.354;9.588;2023-04-08T00:23:36;98573.72;;;7.51;52.85
5609;BME280;2826;51.354;9.588;2023-04-08T00:26:03;98573.06;;;7.41;53.17
5609;BME280;2826;51.354;9.588;2023-04-08T00:28:30;98570.56;;;7.36;53.70
5609;BME280;2826;51.354;9.588;2023-04-08T00:30:57;98573.19;;;7.35;53.73
5609;BME280;2826;51.354;9.588;2023-04-08T00:33:24;98572.41;;;7.31;53.95
5609;BME280;2826;51.354;9.588;2023-04-08T00:35:51;98583.69;;;7.25;54.24
5609;BME280;2826;51.354;9.588;2023-04-08T00:38:18;98581.97;;;7.24;54.10
5609;BME280;2826;51.354;9.588;2023-04-08T00:40:47;98580.22;;;7.25;54.17
5609;BME280;2826;51.354;9.588;2023-04-08T00:43:14;98575.00;;;7.29;54.29
5609;BME280;2826;51.354;9.588;2023-04-08T00:45:41;98576.66;;;7.34;53.97
5609;BME280;2826;51.354;9.588;2023-04-08T00:48:08;98576.56;;;7.38;53.82
5609;BME280;2826;51.354;9.588;2023-04-08T00:50:35;98585.91;;;7.42;53.64
5609;BME280;2826;51.354;9.588;2023-04-08T00:53:06;98578.91;;;7.49;53.17
5609;BME280;2826;51.354;9.588;2023-04-08T00:55:33;98573.66;;;7.54;52.93
5609;BME280;2826;51.354;9.588;2023-04-08T00:58:01;98569.44;;;7.50;52.89
5609;BME280;2826;51.354;9.588;2023-04-08T01:00:29;98568.53;;;7.52;52.73
5609;BME280;2826;51.354;9.588;2023-04-08T01:03:05;98572.75;;;7.55;52.68
5609;BME280;2826;51.354;9.588;2023-04-08T01:05:39;98568.34;;;7.60;52.71
5609;BME280;2826;51.354;9.588;2023-04-08T01:08:10;98565.75;;;7.62;52.40
5609;BME280;2826;51.354;9.588;2023-04-08T01:10:39;98571.78;;;7.62;52.36
5609;BME280;2826;51.354;9.588;2023-04-08T01:13:13;98572.66;;;7.61;52.01
5609;BME280;2826;51.354;9.588;2023-04-08T01:15:44;98566.66;;;7.59;52.16
5609;BME280;2826;51.354;9.588;2023-04-08T01:18:14;98568.22;;;7.68;52.23
5609;BME280;2826;51.354;9.588;2023-04-08T01:20:43;98576.75;;;7.70;52.18
5609;BME280;2826;51.354;9.588;2023-04-08T01:23:16;98578.53;;;7.68;52.27
5609;BME280;2826;51.354;9.588;2023-04-08T01:25:48;98576.78;;;7.68;52.43
5609;BME280;2826;51.354;9.588;2023-04-08T01:28:18;98558.22;;;7.51;52.86
5609;BME280;2826;51.354;9.588;2023-04-08T01:30:46;98570.22;;;7.53;53.11
5609;BME280;2826;51.354;9.588;2023-04-08T01:33:15;98581.44;;;7.52;53.49
5609;BME280;2826;51.354;9.588;2023-04-08T01:35:43;98579.91;;;7.42;54.37
5609;BME280;2826;51.354;9.588;2023-04-08T01:38:19;98582.53;;;7.40;54.36
5609;BME280;2826;51.354;9.588;2023-04-08T01:40:48;98579.88;;;7.45;54.26
5609;BME280;2826;51.354;9.588;2023-04-08T01:43:18;98581.56;;;7.46;54.19
5609;BME280;2826;51.354;9.588;2023-04-08T01:45:47;98579.00;;;7.44;53.80
5609;BME280;2826;51.354;9.588;2023-04-08T01:48:19;98573.78;;;7.48;53.69
5609;BME280;2826;51.354;9.588;2023-04-08T01:50:46;98572.00;;;7.51;53.76
5609;BME280;2826;51.354;9.588;2023-04-08T01:53:16;98566.84;;;7.51;53.38
5609;BME280;2826;51.354;9.588;2023-04-08T01:55:44;98573.75;;;7.49;53.46
5609;BME280;2826;51.354;9.588;2023-04-08T01:58:17;98575.38;;;7.53;53.36
5609;BME280;2826;51.354;9.588;2023-04-08T02:00:46;98559.25;;;7.43;53.81
5609;BME280;2826;51.354;9.588;2023-04-08T02:03:16;98571.88;;;7.56;53.81
5609;BME280;2826;51.354;9.588;2023-04-08T02:05:45;98577.03;;;7.56;53.26
5609;BME280;2826;51.354;9.588;2023-04-08T02:08:12;98568.50;;;7.54;52.69
5609;BME280;2826;51.354;9.588;2023-04-08T02:10:39;98576.22;;;7.55;52.89
5609;BME280;2826;51.354;9.588;2023-04-08T02:13:06;98577.94;;;7.55;52.27
5609;BME280;2826;51.354;9.588;2023-04-08T02:15:37;98581.41;;;7.54;52.46
5609;BME280;2826;51.354;9.588;2023-04-08T02:18:11;98554.13;;;7.42;52.70
5609;BME280;2826;51.354;9.588;2023-04-08T02:20:43;98581.22;;;7.62;52.51
5609;BME280;2826;51.354;9.588;2023-04-08T02:23:13;98573.44;;;7.65;52.47
5609;BME280;2826;51.354;9.588;2023-04-08T02:25:43;98573.44;;;7.65;52.35
5609;BME280;2826;51.354;9.588;2023-04-08T02:28:11;98582.91;;;7.63;52.63
5609;BME280;2826;51.354;9.588;2023-04-08T02:30:43;98586.50;;;7.57;52.91
5609;BME280;2826;51.354;9.588;2023-04-08T02:33:15;98577.94;;;7.53;52.98
5609;BME280;2826;51.354;9.588;2023-04-08T02:35:43;98581.38;;;7.55;53.21
5609;BME280;2826;51.354;9.588;2023-04-08T02:38:11;98575.28;;;7.58;53.16
5609;BME280;2826;51.354;9.588;2023-04-08T02:40:38;98576.00;;;7.65;53.30
5609;BME280;2826;51.354;9.588;2023-04-08T02:43:05;98579.41;;;7.67;53.04
5609;BME280;2826;51.354;9.588;2023-04-08T02:45:36;98579.41;;;7.67;53.12
5609;BME280;2826;51.354;9.588;2023-04-08T02:48:05;98585.47;;;7.64;53.34
5609;BME280;2826;51.354;9.588;2023-04-08T02:50:32;98582.91;;;7.63;53.35
5609;BME280;2826;51.354;9.588;2023-04-08T02:53:00;98586.22;;;7.69;53.34
5609;BME280;2826;51.354;9.588;2023-04-08T02:55:28;98589.72;;;7.67;53.34
5609;BME280;2826;51.354;9.588;2023-04-08T02:57:55;98584.69;;;7.61;53.67
5609;BME280;2826;51.354;9.588;2023-04-08T03:00:22;98593.41;;;7.55;53.99
5609;BME280;2826;51.354;9.588;2023-04-08T03:02:49;98592.66;;;7.50;55.01
5609;BME280;2826;51.354;9.588;2023-04-08T03:05:18;98600.50;;;7.45;55.72
5609;BME280;2826;51.354;9.588;2023-04-08T03:07:45;98597.06;;;7.44;55.56
5609;BME280;2826;51.354;9.588;2023-04-08T03:10:12;98593.50;;;7.52;55.72
5609;BME280;2826;51.354;9.588;2023-04-08T03:12:39;98596.97;;;7.49;55.34
5609;BME280;2826;51.354;9.588;2023-04-08T03:15:06;98592.66;;;7.50;55.19
5609;BME280;2826;51.354;9.588;2023-04-08T03:17:34;98598.53;;;7.56;55.11
5609;BME280;2826;51.354;9.588;2023-04-08T03:20:01;98593.38;;;7.56;55.12
5609;BME280;2826;51.354;9.588;2023-04-08T03:22:31;98577.94;;;7.55;55.15
5609;BME280;2826;51.354;9.588;2023-04-08T03:24:58;98592.38;;;7.65;55.20
5609;BME280;2826;51.354;9.588;2023-04-08T03:27:25;98599.19;;;7.68;55.94
5609;BME280;2826;51.354;9.588;2023-04-08T03:29:52;98597.31;;;7.76;55.92
5609;BME280;2826;51.354;9.588;2023-04-08T03:32:19;98600.69;;;7.78;56.72
5609;BME280;2826;51.354;9.588;2023-04-08T03:34:46;98604.97;;;7.79;56.79
5609;BME280;2826;51.354;9.588;2023-04-08T03:37:15;98597.53;;;7.65;58.25
5609;BME280;2826;51.354;9.588;2023-04-08T03:39:44;98597.75;;;7.54;58.40
5609;BME280;2826;51.354;9.588;2023-04-08T03:42:11;98602.94;;;7.53;58.48
5609;BME280;2826;51.354;9.588;2023-04-08T03:44:38;98601.31;;;7.47;59.58
5609;BME280;2826;51.354;9.588;2023-04-08T03:47:05;98600.72;;;7.34;60.27
5609;BME280;2826;51.354;9.588;2023-04-08T03:49:32;98596.50;;;7.30;60.21
5609;BME280;2826;51.354;9.588;2023-04-08T03:51:59;98600.00;;;7.26;59.52
5609;BME280;2826;51.354;9.588;2023-04-08T03:54:26;98597.63;;;7.15;60.04
5609;BME280;2826;51.354;9.588;2023-04-08T03:56:55;98607.09;;;7.14;59.71
5609;BME280;2826;51.354;9.588;2023-04-08T03:59:22;98605.28;;;7.19;59.99
5609;BME280;2826;51.354;9.588;2023-04-08T04:01:49;98600.81;;;7.28;59.30
5609;BME280;2826;51.354;9.588;2023-04-08T04:04:18;98600.78;;;7.29;59.71
5609;BME280;2826;51.354;9.588;2023-04-08T04:06:45;98602.66;;;7.21;60.58
5609;BME280;2826;51.354;9.588;2023-04-08T04:09:11;98607.81;;;7.21;60.84
5609;BME280;2826;51.354;9.588;2023-04-08T04:11:40;98615.53;;;7.23;61.24
5609;BME280;2826;51.354;9.588;2023-04-08T04:14:08;98603.53;;;7.22;61.85
5609;BME280;2826;51.354;9.588;2023-04-08T04:16:35;98607.00;;;7.21;62.78
5609;BME280;2826;51.354;9.588;2023-04-08T04:19:02;98612.97;;;7.23;63.28
5609;BME280;2826;51.354;9.588;2023-04-08T04:21:29;98619.00;;;7.22;64.25
5609;BME280;2826;51.354;9.588;2023-04-08T04:23:55;98598.75;;;7.01;64.27
5609;BME280;2826;51.354;9.588;2023-04-08T04:26:22;98631.78;;;7.28;65.09
5609;BME280;2826;51.354;9.588;2023-04-08T04:28:50;98624.84;;;7.31;64.94
5609;BME280;2826;51.354;9.588;2023-04-08T04:31:20;98622.19;;;7.35;64.51
5609;BME280;2826;51.354;9.588;2023-04-08T04:33:47;98616.44;;;7.22;65.17
5609;BME280;2826;51.354;9.588;2023-04-08T04:36:15;98610.53;;;7.15;65.72
5609;BME280;2826;51.354;9.588;2023-04-08T04:38:41;98627.38;;;7.33;65.61
5609;BME280;2826;51.354;9.588;2023-04-08T04:41:09;98632.41;;;7.41;65.17
5609;BME280;2826;51.354;9.588;2023-04-08T04:43:36;98639.22;;;7.45;64.87
5609;BME280;2826;51.354;9.588;2023-04-08T04:46:03;98642.69;;;7.42;64.84
5609;BME280;2826;51.354;9.588;2023-04-08T04:48:35;98642.69;;;7.42;65.01
5609;BME280;2826;51.354;9.588;2023-04-08T04:51:02;98627.56;;;7.24;64.62
5609;BME280;2826;51.354;9.588;2023-04-08T04:53:32;98653.06;;;7.39;65.39
5609;BME280;2826;51.354;9.588;2023-04-08T04:55:59;98616.44;;;7.20;65.19
5609;BME280;2826;51.354;9.588;2023-04-08T04:58:27;98648.75;;;7.40;65.75
5609;BME280;2826;51.354;9.588;2023-04-08T05:00:54;98654.78;;;7.39;66.18
5609;BME280;2826;51.354;9.588;2023-04-08T05:03:21;98645.44;;;7.33;66.69
5609;BME280;2826;51.354;9.588;2023-04-08T05:05:51;98618.31;;;7.12;67.39
5609;BME280;2826;51.354;9.588;2023-04-08T05:08:19;98648.09;;;7.30;67.42
5609;BME280;2826;51.354;9.588;2023-04-08T05:10:46;98648.00;;;7.33;67.40
5609;BME280;2826;51.354;9.588;2023-04-08T05:13:15;98647.97;;;7.36;67.58
5609;BME280;2826;51.354;9.588;2023-04-08T05:15:41;98655.66;;;7.39;67.48
5609;BME280;2826;51.354;9.588;2023-04-08T05:18:10;98661.59;;;7.43;67.40
5609;BME280;2826;51.354;9.588;2023-04-08T05:20:37;98666.75;;;7.44;67.67
5609;BME280;2826;51.354;9.588;2023-04-08T05:23:05;98659.88;;;7.43;67.57
5609;BME280;2826;51.354;9.588;2023-04-08T05:25:33;98664.19;;;7.43;68.06
5609;BME280;2826;51.354;9.588;2023-04-08T05:28:00;98665.88;;;7.44;68.20
5609;BME280;2826;51.354;9.588;2023-04-08T05:30:27;98665.03;;;7.43;68.49
5609;BME280;2826;51.354;9.588;2023-04-08T05:32:54;98667.66;;;7.42;68.92
5609;BME280;2826;51.354;9.588;2023-04-08T05:35:21;98667.66;;;7.42;69.04
5609;BME280;2826;51.354;9.588;2023-04-08T05:37:47;98672.97;;;7.32;70.49
5609;BME280;2826;51.354;9.588;2023-04-08T05:40:16;98668.72;;;7.31;70.92
5609;BME280;2826;51.354;9.588;2023-04-08T05:42:43;98673.78;;;7.35;71.30
5609;BME280;2826;51.354;9.588;2023-04-08T05:45:14;98674.63;;;7.37;71.58
5609;BME280;2826;51.354;9.588;2023-04-08T05:47:42;98678.94;;;7.36;72.06
5609;BME280;2826;51.354;9.588;2023-04-08T05:50:09;98676.19;;;7.44;72.00
5609;BME280;2826;51.354;9.588;2023-04-08T05:52:40;98677.78;;;7.51;71.48
5609;BME280;2826;51.354;9.588;2023-04-08T05:55:08;98682.91;;;7.54;71.92
5609;BME280;2826;51.354;9.588;2023-04-08T05:57:36;98686.31;;;7.55;72.34
5609;BME280;2826;51.354;9.588;2023-04-08T06:00:06;98692.34;;;7.55;72.45
5609;BME280;2826;51.354;9.588;2023-04-08T06:02:36;98683.81;;;7.52;72.72
5609;BME280;2826;51.354;9.588;2023-04-08T06:05:03;98688.16;;;7.48;72.87
5609;BME280;2826;51.354;9.588;2023-04-08T06:07:32;98695.88;;;7.50;73.06
5609;BME280;2826;51.354;9.588;2023-04-08T06:09:59;98697.56;;;7.51;73.24
5609;BME280;2826;51.354;9.588;2023-04-08T06:12:26;98700.13;;;7.52;72.88
5609;BME280;2826;51.354;9.588;2023-04-08T06:14:55;98700.13;;;7.52;73.11
5609;BME280;2826;51.354;9.588;2023-04-08T06:17:22;98695.88;;;7.50;73.43
5609;BME280;2826;51.354;9.588;2023-04-08T06:19:49;98696.84;;;7.44;74.01
5609;BME280;2826;51.354;9.588;2023-04-08T06:22:16;98699.34;;;7.49;74.32
5609;BME280;2826;51.354;9.588;2023-04-08T06:24:46;98679.78;;;7.37;74.09
5609;BME280;2826;51.354;9.588;2023-04-08T06:27:13;98702.66;;;7.55;74.24
5609;BME280;2826;51.354;9.588;2023-04-08T06:29:40;98707.00;;;7.53;74.47
5609;BME280;2826;51.354;9.588;2023-04-08T06:32:09;98705.41;;;7.48;75.23
5609;BME280;2826;51.354;9.588;2023-04-08T06:34:37;98706.22;;;7.48;75.75
5609;BME280;2826;51.354;9.588;2023-04-08T06:37:04;98710.59;;;7.46;76.19
5609;BME280;2826;51.354;9.588;2023-04-08T06:39:32;98699.53;;;7.39;76.22
5609;BME280;2826;51.354;9.588;2023-04-08T06:42:00;98708.97;;;7.39;77.40
5609;BME280;2826;51.354;9.588;2023-04-08T06:44:37;98715.06;;;7.35;77.94
5609;BME280;2826;51.354;9.588;2023-04-08T06:47:04;98722.03;;;7.31;78.04
5609;BME280;2826;51.354;9.588;2023-04-08T06:49:33;98725.53;;;7.27;79.11
5609;BME280;2826;51.354;9.588;2023-04-08T06:52:00;98716.75;;;7.36;79.13
5609;BME280;2826;51.354;9.588;2023-04-08T06:54:27;98703.34;;;7.16;79.29
5609;BME280;2826;51.354;9.588;2023-04-08T06:56:55;98732.31;;;7.32;79.52
5609;BME280;2826;51.354;9.588;2023-04-08T06:59:22;98733.19;;;7.31;79.66
5609;BME280;2826;51.354;9.588;2023-04-08T07:01:49;98740.09;;;7.29;80.10
5609;BME280;2826;51.354;9.588;2023-04-08T07:04:16;98738.44;;;7.25;81.15
5609;BME280;2826;51.354;9.588;2023-04-08T07:06:45;98736.66;;;7.29;81.14
5609;BME280;2826;51.354;9.588;2023-04-08T07:09:12;98741.72;;;7.35;80.66
5609;BME280;2826;51.354;9.588;2023-04-08T07:11:39;98744.09;;;7.48;81.02
5609;BME280;2826;51.354;9.588;2023-04-08T07:14:07;98749.16;;;7.54;81.36
5609;BME280;2826;51.354;9.588;2023-04-08T07:16:36;98746.41;;;7.63;81.29
5609;BME280;2826;51.354;9.588;2023-04-08T07:19:05;98753.06;;;7.75;80.53
5609;BME280;2826;51.354;9.588;2023-04-08T07:21:32;98753.75;;;7.83;79.61
5609;BME280;2826;51.354;9.588;2023-04-08T07:24:02;98746.94;;;7.81;79.86
5609;BME280;2826;51.354;9.588;2023-04-08T07:26:30;98763.03;;;7.94;79.95
5609;BME280;2826;51.354;9.588;2023-04-08T07:28:57;98723.00;;;7.71;79.82
5609;BME280;2826;51.354;9.588;2023-04-08T07:31:25;98761.41;;;7.90;79.76
5609;BME280;2826;51.354;9.588;2023-04-08T07:33:52;98707.53;;;7.69;79.86
5609;BME280;2826;51.354;9.588;2023-04-08T07:36:21;98761.97;;;8.06;79.71
5609;BME280;2826;51.354;9.588;2023-04-08T07:38:49;98752.44;;;8.08;79.01
5609;BME280;2826;51.354;9.588;2023-04-08T07:41:21;98772.75;;;8.25;79.09
5609;BME280;2826;51.354;9.588;2023-04-08T07:43:49;98776.16;;;8.29;78.32
5609;BME280;2826;51.354;9.588;2023-04-08T07:46:16;98785.63;;;8.27;78.49
5609;BME280;2826;51.354;9.588;2023-04-08T07:48:44;98787.44;;;8.23;78.56
5609;BME280;2826;51.354;9.588;2023-04-08T07:51:12;98785.16;;;8.07;79.08
5609;BME280;2826;51.354;9.588;2023-04-08T07:53:40;98797.38;;;7.99;79.38
5609;BME280;2826;51.354;9.588;2023-04-08T07:56:12;98792.13;;;8.02;79.59
5609;BME280;2826;51.354;9.588;2023-04-08T07:58:41;98790.63;;;7.92;79.96
5609;BME280;2826;51.354;9.588;2023-04-08T08:01:19;98795.72;;;7.96;79.98
5609;BME280;2826;51.354;9.588;2023-04-08T08:03:47;98788.63;;;8.06;79.94
5609;BME280;2826;51.354;9.588;2023-04-08T08:06:16;98798.16;;;8.03;79.50
5609;BME280;2826;51.354;9.588;2023-04-08T08:08:44;98794.66;;;8.07;79.69
5609;BME280;2826;51.354;9.588;2023-04-08T08:11:12;98791.03;;;8.16;79.68
5609;BME280;2826;51.354;9.588;2023-04-08T08:13:43;98802.91;;;8.26;79.57
5609;BME280;2826;51.354;9.588;2023-04-08T08:16:12;98802.09;;;8.21;78.87
5609;BME280;2826;51.354;9.588;2023-04-08T08:18:43;98802.06;;;8.24;79.49
5609;BME280;2826;51.354;9.588;2023-04-08T08:21:11;98802.09;;;8.22;79.54
5609;BME280;2826;51.354;9.588;2023-04-08T08:23:40;98807.19;;;8.26;79.99
5609;BME280;2826;51.354;9.588;2023-04-08T08:26:12;98800.34;;;8.24;79.55
5609;BME280;2826;51.354;9.588;2023-04-08T08:28:46;98813.06;;;8.34;79.71
5609;BME280;2826;51.354;9.588;2023-04-08T08:31:41;98812.09;;;8.40;79.79
5609;BME280;2826;51.354;9.588;2023-04-08T08:34:27;98820.63;;;8.43;79.13
5609;BME280;2826;51.354;9.588;2023-04-08T08:37:04;98818.81;;;8.48;78.67
5609;BME280;2826;51.354;9.588;2023-04-08T08:39:31;98822.25;;;8.49;79.21
5609;BME280;2826;51.354;9.588;2023-04-08T08:41:59;98816.16;;;8.53;78.99
5609;BME280;2826;51.354;9.588;2023-04-08T08:44:29;98819.47;;;8.60;78.45
5609;BME280;2826;51.354;9.588;2023-04-08T08:46:59;98821.19;;;8.59;78.09
5609;BME280;2826;51.354;9.588;2023-04-08T08:49:29;98833.53;;;8.45;78.60
5609;BME280;2826;51.354;9.588;2023-04-08T08:51:57;98818.50;;;8.20;79.56
5609;BME280;2826;51.354;9.588;2023-04-08T08:54:26;98838.00;;;8.36;79.94
5609;BME280;2826;51.354;9.588;2023-04-08T08:56:53;98845.47;;;8.50;80.02
5609;BME280;2826;51.354;9.588;2023-04-08T08:59:21;98852.31;;;8.55;79.11
5609;BME280;2826;51.354;9.588;2023-04-08T09:02:04;98849.03;;;8.45;79.79
5609;BME280;2826;51.354;9.588;2023-04-08T09:05:22;98855.75;;;8.52;79.58
5609;BME280;2826;51.354;9.588;2023-04-08T09:07:50;98858.44;;;8.49;79.55
5609;BME280;2826;51.354;9.588;2023-04-08T09:10:26;98860.19;;;8.47;79.29
5609;BME280;2826;51.354;9.588;2023-04-08T09:13:04;98858.66;;;8.36;80.04
5609;BME280;2826;51.354;9.588;2023-04-08T09:20:16;98854.94;;;8.53;79.98
5609;BME280;2826;51.354;9.588;2023-04-08T09:22:55;98859.81;;;8.67;80.01
5609;BME280;2826;51.354;9.588;2023-04-08T09:25:23;98866.72;;;8.67;79.23
5609;BME280;2826;51.354;9.588;2023-04-08T09:27:52;98861.78;;;8.56;79.89
5609;BME280;2826;51.354;9.588;2023-04-08T09:30:23;98872.38;;;8.86;79.18
5609;BME280;2826;51.354;9.588;2023-04-08T09:33:10;98862.47;;;9.04;78.42
5609;BME280;2826;51.354;9.588;2023-04-08T09:35:43;98877.13;;;9.05;78.31
5609;BME280;2826;51.354;9.588;2023-04-08T09:38:13;98882.22;;;9.08;78.45
5609;BME280;2826;51.354;9.588;2023-04-08T09:40:43;98871.72;;;9.15;78.04
5609;BME280;2826;51.354;9.588;2023-04-08T09:43:41;98874.13;;;9.23;78.20
5609;BME280;2826;51.354;9.588;2023-04-08T09:46:10;98874.63;;;9.39;77.06
5609;BME280;2826;51.354;9.588;2023-04-08T09:48:41;98879.03;;;9.36;77.24
5609;BME280;2826;51.354;9.588;2023-04-08T09:51:15;98878.00;;;9.43;76.50
5609;BME280;2826;51.354;9.588;2023-04-08T09:53:47;98878.13;;;9.38;76.21
5609;BME280;2826;51.354;9.588;2023-04-08T09:56:18;98883.53;;;9.27;76.42
5609;BME280;2826;51.354;9.588;2023-04-08T09:58:51;98875.06;;;9.21;76.67
5609;BME280;2826;51.354;9.588;2023-04-08T10:01:25;98874.31;;;9.15;76.63
5609;BME280;2826;51.354;9.588;2023-04-08T10:03:55;98873.63;;;9.07;76.92
5609;BME280;2826;51.354;9.588;2023-04-08T10:06:27;98883.09;;;9.08;78.03
5609;BME280;2826;51.354;9.588;2023-04-08T10:08:57;98869.84;;;9.22;77.39
5609;BME280;2826;51.354;9.588;2023-04-08T10:11:25;98875.09;;;9.19;77.29
5609;BME280;2826;51.354;9.588;2023-04-08T10:13:53;98877.84;;;9.11;76.79
5609;BME280;2826;51.354;9.588;2023-04-08T10:16:22;98882.19;;;9.09;77.36
5609;BME280;2826;51.354;9.588;2023-04-08T10:18:52;98882.38;;;9.01;78.09
5609;BME280;2826;51.354;9.588;2023-04-08T10:21:33;98883.09;;;9.08;78.52
5609;BME280;2826;51.354;9.588;2023-04-08T10:24:01;98886.22;;;9.23;77.95
5609;BME280;2826;51.354;9.588;2023-04-08T10:26:34;98883.66;;;9.21;77.73
5609;BME280;2826;51.354;9.588;2023-04-08T10:32:08;98897.25;;;9.31;77.76
5609;BME280;2826;51.354;9.588;2023-04-08T10:34:50;98886.91;;;9.30;78.19
5609;BME280;2826;51.354;9.588;2023-04-08T10:40:53;98865.28;;;9.32;76.80
5609;BME280;2826;51.354;9.588;2023-04-08T10:43:21;98889.63;;;9.63;76.53
5609;BME280;2826;51.354;9.588;2023-04-08T10:45:52;98882.47;;;9.73;76.58
5609;BME280;2826;51.354;9.588;2023-04-08T10:48:28;98889.88;;;9.88;76.06
5609;BME280;2826;51.354;9.588;2023-04-08T10:50:57;98891.31;;;9.99;75.06
5609;BME280;2826;51.354;9.588;2023-04-08T10:53:26;98896.47;;;10.00;74.40
5609;BME280;2826;51.354;9.588;2023-04-08T10:56:02;98901.09;;;9.89;75.12
5609;BME280;2826;51.354;9.588;2023-04-08T10:58:30;98897.66;;;9.87;74.40
5609;BME280;2826;51.354;9.588;2023-04-08T11:01:03;98897.69;;;9.85;75.34
5609;BME280;2826;51.354;9.588;2023-04-08T11:03:32;98862.72;;;9.69;75.22
5609;BME280;2826;51.354;9.588;2023-04-08T11:06:01;98895.16;;;9.84;75.38
5609;BME280;2826;51.354;9.588;2023-04-08T11:08:29;98901.88;;;9.91;75.57
5609;BME280;2826;51.354;9.588;2023-04-08T11:10:59;98871.78;;;9.85;74.89
5609;BME280;2826;51.354;9.588;2023-04-08T11:13:28;98873.66;;;9.80;74.97
5609;BME280;2826;51.354;9.588;2023-04-08T11:15:58;98895.03;;;9.88;75.45
5609;BME280;2826;51.354;9.588;2023-04-08T11:18:28;98893.78;;;10.05;74.83
5609;BME280;2826;51.354;9.588;2023-04-08T11:20:57;98890.84;;;10.17;74.82
5609;BME280;2826;51.354;9.588;2023-04-08T11:23:25;98895.03;;;10.22;73.68
5609;BME280;2826;51.354;9.588;2023-04-08T11:25:52;98889.34;;;10.09;73.67
5609;BME280;2826;51.354;9.588;2023-04-08T11:28:24;98892.03;;;10.04;74.45
5609;BME280;2826;51.354;9.588;2023-04-08T11:30:53;98894.22;;;10.21;75.15
5609;BME280;2826;51.354;9.588;2023-04-08T11:33:20;98892.34;;;10.59;74.26
5609;BME280;2826;51.354;9.588;2023-04-08T11:35:51;98868.13;;;10.89;73.66
5609;BME280;2826;51.354;9.588;2023-04-08T11:38:21;98873.38;;;11.45;71.76
5609;BME280;2826;51.354;9.588;2023-04-08T11:40:52;98873.97;;;11.80;69.70
5609;BME280;2826;51.354;9.588;2023-04-08T11:43:19;98884.59;;;11.74;68.74
5609;BME280;2826;51.354;9.588;2023-04-08T11:45:49;98884.22;;;11.85;67.54
5609;BME280;2826;51.354;9.588;2023-04-08T11:48:18;98878.88;;;11.89;67.12
5609;BME280;2826;51.354;9.588;2023-04-08T11:50:46;98875.78;;;11.78;66.87
5609;BME280;2826;51.354;9.588;2023-04-08T11:53:21;98893.25;;;11.74;67.01
5609;BME280;2826;51.354;9.588;2023-04-08T11:55:51;98896.28;;;11.60;67.32
5609;BME280;2826;51.354;9.588;2023-04-08T11:58:18;98898.00;;;11.60;67.96
5609;BME280;2826;51.354;9.588;2023-04-08T12:00:45;98869.69;;;11.52;69.02
5609;BME280;2826;51.354;9.588;2023-04-08T12:03:16;98903.63;;;11.74;67.80
5609;BME280;2826;51.354;9.588;2023-04-08T12:05:43;98892.00;;;11.59;68.15
5609;BME280;2826;51.354;9.588;2023-04-08T12:08:11;98897.41;;;11.52;68.83
5609;BME280;2826;51.354;9.588;2023-04-08T12:10:43;98900.13;;;11.48;68.93
5609;BME280;2826;51.354;9.588;2023-04-08T12:13:19;98890.03;;;11.39;69.74
5609;BME280;2826;51.354;9.588;2023-04-08T12:15:46;98894.06;;;11.48;69.75
5609;BME280;2826;51.354;9.588;2023-04-08T12:18:16;98895.06;;;11.44;69.64
5609;BME280;2826;51.354;9.588;2023-04-08T12:20:43;98885.06;;;11.58;68.99
5609;BME280;2826;51.354;9.588;2023-04-08T12:23:10;98902.25;;;11.89;68.01
5609;BME280;2826;51.354;9.588;2023-04-08T12:25:38;98904.34;;;12.07;66.81
5609;BME280;2826;51.354;9.588;2023-04-08T12:28:06;98913.34;;;12.47;66.19
5609;BME280;2826;51.354;9.588;2023-04-08T12:30:34;98910.63;;;12.50;63.96
5609;BME280;2826;51.354;9.588;2023-04-08T12:33:02;98913.28;;;12.23;64.17
5609;BME280;2826;51.354;9.588;2023-04-08T12:35:31;98912.00;;;11.83;65.56
5609;BME280;2826;51.354;9.588;2023-04-08T12:37:58;98908.19;;;11.68;67.33
5609;BME280;2826;51.354;9.588;2023-04-08T12:40:27;98909.81;;;11.70;67.67
5609;BME280;2826;51.354;9.588;2023-04-08T12:42:54;98914.16;;;11.70;67.85
5609;BME280;2826;51.354;9.588;2023-04-08T12:45:22;98909.06;;;11.67;67.58
5609;BME280;2826;51.354;9.588;2023-04-08T12:47:49;98908.63;;;11.81;68.09
5609;BME280;2826;51.354;9.588;2023-04-08T12:50:17;98901.88;;;12.00;67.27
5609;BME280;2826;51.354;9.588;2023-04-08T12:52:46;98903.38;;;12.09;66.24
5609;BME280;2826;51.354;9.588;2023-04-08T12:55:13;98906.41;;;12.22;65.13
5609;BME280;2826;51.354;9.588;2023-04-08T12:57:41;98902.47;;;12.36;64.60
5609;BME280;2826;51.354;9.588;2023-04-08T13:00:09;98901.69;;;12.34;64.46
5609;BME280;2826;51.354;9.588;2023-04-08T13:02:36;98904.00;;;12.41;64.40
5609;BME280;2826;51.354;9.588;2023-04-08T13:05:04;98910.25;;;12.36;64.21
5609;BME280;2826;51.354;9.588;2023-04-08T13:07:32;98899.03;;;12.35;65.30
5609;BME280;2826;51.354;9.588;2023-04-08T13:10:01;98901.31;;;12.45;65.13
5609;BME280;2826;51.354;9.588;2023-04-08T13:12:29;98874.09;;;12.53;64.79
5609;BME280;2826;51.354;9.588;2023-04-08T13:14:57;98895.94;;;12.97;63.05
5609;BME280;2826;51.354;9.588;2023-04-08T13:17:25;98893.34;;;13.19;62.56
5609;BME280;2826;51.354;9.588;2023-04-08T13:19:52;98888.66;;;13.52;62.12
5609;BME280;2826;51.354;9.588;2023-04-08T13:22:19;98880.41;;;13.63;60.06
5609;BME280;2826;51.354;9.588;2023-04-08T13:24:47;98884.13;;;13.78;59.53
5609;BME280;2826;51.354;9.588;2023-04-08T13:27:15;98885.19;;;13.74;59.30
5609;BME280;2826;51.354;9.588;2023-04-08T13:29:43;98893.19;;;13.69;58.95
5609;BME280;2826;51.354;9.588;2023-04-08T13:32:10;98884.72;;;13.84;58.61
5609;BME280;2826;51.354;9.588;2023-04-08T13:34:38;98876.97;;;14.04;58.26
5609;BME280;2826;51.354;9.588;2023-04-08T13:37:05;98883.75;;;14.29;58.45
5609;BME280;2826;51.354;9.588;2023-04-08T13:39:32;98884.53;;;14.31;56.19
5609;BME280;2826;51.354;9.588;2023-04-08T13:42:00;98882.66;;;14.14;55.96
5609;BME280;2826;51.354;9.588;2023-04-08T13:44:29;98890.47;;;14.14;55.91
5609;BME280;2826;51.354;9.588;2023-04-08T13:46:58;98890.59;;;14.10;56.96
5609;BME280;2826;51.354;9.588;2023-04-08T13:49:25;98886.75;;;14.19;57.56
5609;BME280;2826;51.354;9.588;2023-04-08T13:51:53;98890.28;;;14.18;57.77